createdAt,value
2022-08-25T00:01:41.497Z,4.05
2022-08-25T00:04:12.561Z,4.10
2022-08-25T00:06:42.637Z,4.15
2022-08-25T00:09:12.370Z,3.97
2022-08-25T00:11:40.710Z,5.38
2022-08-25T00:14:12.414Z,4.82
2022-08-25T00:16:39.760Z,4.85
2022-08-25T00:19:11.791Z,5.45
2022-08-25T00:21:41.346Z,4.90
2022-08-25T00:24:10.238Z,5.05
2022-08-25T00:26:40.779Z,4.35
2022-08-25T00:29:09.601Z,4.60
2022-08-25T00:31:37.815Z,5.00
2022-08-25T00:34:09.821Z,4.30
2022-08-25T00:36:37.694Z,4.43
2022-08-25T00:39:07.179Z,5.32
2022-08-25T00:41:35.528Z,4.82
2022-08-25T00:44:05.690Z,5.55
2022-08-25T00:46:37.261Z,3.70
2022-08-25T00:49:25.261Z,4.68
2022-08-25T00:52:04.290Z,4.70
2022-08-25T00:54:54.642Z,4.15
2022-08-25T00:57:34.906Z,3.88
2022-08-25T01:00:11.034Z,3.95
2022-08-25T01:02:39.224Z,5.25
2022-08-25T01:05:07.394Z,5.22
2022-08-25T01:07:34.957Z,4.45
2022-08-25T01:10:03.837Z,4.13
2022-08-25T01:12:31.191Z,3.75
2022-08-25T01:14:59.215Z,5.10
2022-08-25T01:17:28.541Z,5.05
2022-08-25T01:19:56.174Z,4.93
2022-08-25T01:22:27.011Z,4.70
2022-08-25T01:25:35.822Z,4.70
2022-08-25T01:28:12.529Z,4.53
2022-08-25T01:30:40.098Z,4.75
2022-08-25T01:33:08.945Z,5.35
2022-08-25T01:35:37.231Z,5.65
2022-08-25T01:38:06.617Z,4.88
2022-08-25T01:40:35.741Z,4.68
2022-08-25T01:43:12.393Z,5.03
2022-08-25T01:45:42.747Z,5.43
2022-08-25T01:48:11.610Z,4.80
2022-08-25T01:50:39.968Z,4.90
2022-08-25T01:53:17.972Z,4.78
2022-08-25T01:56:02.700Z,6.03
2022-08-25T01:58:36.226Z,5.20
2022-08-25T02:01:07.782Z,4.70
2022-08-25T02:03:41.207Z,4.55
2022-08-25T02:06:16.229Z,5.13
2022-08-25T02:08:44.536Z,5.95
2022-08-25T02:11:14.305Z,5.18
2022-08-25T02:13:43.019Z,5.45
2022-08-25T02:16:15.217Z,5.30
2022-08-25T02:18:42.620Z,6.18
2022-08-25T02:21:11.616Z,6.80
2022-08-25T02:23:39.068Z,5.47
2022-08-25T02:26:06.263Z,7.35
2022-08-25T02:28:33.455Z,6.40
2022-08-25T02:31:01.887Z,5.95
2022-08-25T02:33:29.403Z,6.97
2022-08-25T02:36:01.566Z,7.05
2022-08-25T02:38:30.011Z,6.90
2022-08-25T02:40:59.193Z,7.78
2022-08-25T02:43:28.406Z,7.10
2022-08-25T02:45:56.665Z,8.00
2022-08-25T02:48:23.990Z,9.02
2022-08-25T02:50:53.034Z,7.95
2022-08-25T02:53:22.339Z,7.90
2022-08-25T02:55:49.625Z,8.27
2022-08-25T02:58:16.737Z,7.32
2022-08-25T03:00:43.954Z,7.57
2022-08-25T03:03:11.257Z,7.93
2022-08-25T03:05:39.282Z,8.10
2022-08-25T03:08:07.774Z,7.55
2022-08-25T03:10:35.774Z,7.75
2022-08-25T03:13:03.140Z,6.80
2022-08-25T03:15:30.526Z,7.35
2022-08-25T03:17:59.926Z,7.63
2022-08-25T03:20:28.731Z,7.78
2022-08-25T03:22:55.964Z,9.35
2022-08-25T03:25:41.716Z,12.10
2022-08-25T03:30:36.403Z,10.75
2022-08-25T03:33:04.193Z,12.35
2022-08-25T03:35:31.470Z,11.63
2022-08-25T03:37:59.816Z,12.55
2022-08-25T03:40:27.511Z,13.60
2022-08-25T03:42:57.068Z,13.15
2022-08-25T03:45:27.478Z,12.48
2022-08-25T03:47:54.881Z,13.60
2022-08-25T03:50:23.519Z,13.07
2022-08-25T03:52:56.368Z,13.13
2022-08-25T03:55:25.448Z,13.88
2022-08-25T03:57:56.308Z,13.98
2022-08-25T04:00:24.310Z,15.88
2022-08-25T04:02:51.739Z,14.98
2022-08-25T04:05:20.594Z,15.73
2022-08-25T04:07:47.667Z,14.93
2022-08-25T04:10:14.998Z,15.70
2022-08-25T04:12:42.255Z,15.70
2022-08-25T04:15:11.017Z,14.88
2022-08-25T04:17:40.373Z,14.57
2022-08-25T04:20:10.061Z,15.73
2022-08-25T04:22:41.357Z,15.70
2022-08-25T04:25:12.746Z,17.13
2022-08-25T04:27:40.136Z,16.90
2022-08-25T04:30:07.935Z,16.80
2022-08-25T04:32:36.974Z,19.08
2022-08-25T04:35:06.210Z,16.33
2022-08-25T04:37:33.765Z,17.20
2022-08-25T04:40:03.531Z,17.35
2022-08-25T04:42:30.700Z,17.88
2022-08-25T04:44:58.176Z,18.48
2022-08-25T04:47:26.245Z,18.67
2022-08-25T04:49:55.436Z,20.25
2022-08-25T04:52:23.435Z,19.85
2022-08-25T04:54:50.772Z,20.73
2022-08-25T04:57:18.085Z,19.70
2022-08-25T04:59:45.353Z,20.38
2022-08-25T05:02:12.629Z,19.55
2022-08-25T05:04:39.951Z,19.17
2022-08-25T05:07:07.164Z,20.15
2022-08-25T05:09:34.718Z,18.90
2022-08-25T05:12:03.129Z,19.98
2022-08-25T05:14:31.156Z,18.73
2022-08-25T05:16:59.037Z,20.67
2022-08-25T05:19:27.087Z,20.00
2022-08-25T05:21:54.380Z,20.27
2022-08-25T05:24:22.489Z,20.05
2022-08-25T05:26:50.229Z,20.92
2022-08-25T05:29:17.775Z,20.02
2022-08-25T05:31:50.078Z,23.33
2022-08-25T05:34:19.161Z,20.38
2022-08-25T05:36:47.227Z,20.75
2022-08-25T05:39:14.911Z,20.80
2022-08-25T05:41:42.333Z,19.02
2022-08-25T05:44:09.931Z,20.17
2022-08-25T05:46:37.262Z,20.38
2022-08-25T05:49:04.499Z,21.70
2022-08-25T05:51:31.688Z,20.70
2022-08-25T05:53:58.973Z,21.13
2022-08-25T05:56:26.131Z,21.00
2022-08-25T05:58:54.249Z,20.17
2022-08-25T06:01:45.003Z,21.33
2022-08-25T06:04:13.883Z,23.00
2022-08-25T06:06:41.558Z,22.83
2022-08-25T06:09:09.833Z,23.60
2022-08-25T06:11:40.286Z,20.55
2022-08-25T06:14:09.778Z,21.92
2022-08-25T06:16:38.804Z,21.02
2022-08-25T06:19:07.523Z,20.98
2022-08-25T06:21:34.915Z,20.35
2022-08-25T06:24:02.491Z,20.25
2022-08-25T06:26:29.918Z,20.17
2022-08-25T06:28:57.099Z,20.90
2022-08-25T06:31:24.897Z,19.08
2022-08-25T06:33:52.472Z,18.70
2022-08-25T06:36:20.645Z,19.10
2022-08-25T06:38:48.591Z,18.83
2022-08-25T06:41:16.763Z,18.45
2022-08-25T06:43:48.916Z,18.67
2022-08-25T06:46:21.708Z,18.85
2022-08-25T06:48:49.841Z,18.75
2022-08-25T06:51:19.560Z,18.02
2022-08-25T06:53:49.273Z,17.95
2022-08-25T06:56:18.082Z,17.80
2022-08-25T06:58:45.607Z,17.92
2022-08-25T07:01:20.781Z,16.30
2022-08-25T07:03:48.869Z,17.02
2022-08-25T07:06:20.011Z,16.52
2022-08-25T07:08:48.282Z,15.35
2022-08-25T07:11:17.455Z,14.85
2022-08-25T07:13:45.609Z,14.25
2022-08-25T07:16:15.519Z,14.25
2022-08-25T07:18:44.216Z,15.10
2022-08-25T07:21:12.966Z,14.15
2022-08-25T07:23:43.329Z,13.02
2022-08-25T07:26:27.085Z,14.95
2022-08-25T07:29:00.385Z,13.55
2022-08-25T07:31:29.671Z,12.05
2022-08-25T07:34:16.571Z,12.00
2022-08-25T07:36:44.477Z,14.40
2022-08-25T07:39:12.439Z,12.57
2022-08-25T07:41:42.555Z,11.30
2022-08-25T07:44:12.209Z,11.15
2022-08-25T07:46:39.991Z,10.77
2022-08-25T07:49:16.441Z,8.27
2022-08-25T07:52:04.494Z,9.07
2022-08-25T07:54:35.085Z,8.48
2022-08-25T07:57:04.757Z,7.68
2022-08-25T07:59:39.282Z,7.22
2022-08-25T08:04:51.938Z,6.60
2022-08-25T08:07:41.896Z,6.88
2022-08-25T08:10:42.386Z,7.35
2022-08-25T08:13:00.893Z,5.82
2022-08-25T08:15:29.908Z,5.32
2022-08-25T08:17:59.087Z,4.88
2022-08-25T08:20:27.603Z,6.40
2022-08-25T08:22:56.174Z,5.75
2022-08-25T08:25:27.242Z,4.68
2022-08-25T08:27:56.087Z,6.45
2022-08-25T08:30:26.177Z,5.80
2022-08-25T08:33:09.619Z,5.03
2022-08-25T08:35:37.854Z,5.97
2022-08-25T08:38:13.516Z,5.45
2022-08-25T08:41:29.655Z,4.97
2022-08-25T08:44:21.006Z,5.05
2022-08-25T08:47:13.428Z,5.85
2022-08-25T08:50:23.160Z,5.03
2022-08-25T08:53:20.158Z,5.25
2022-08-25T08:55:52.967Z,4.60
2022-08-25T08:58:39.541Z,4.40
2022-08-25T09:01:12.846Z,5.00
2022-08-25T09:03:47.405Z,4.53
2022-08-25T09:06:31.600Z,4.00
2022-08-25T09:09:02.635Z,4.85
2022-08-25T09:14:53.811Z,4.78
2022-08-25T09:17:56.569Z,3.95
2022-08-25T09:20:49.064Z,4.90
2022-08-25T09:23:40.375Z,3.42
2022-08-25T09:26:32.973Z,5.57
2022-08-25T09:29:06.472Z,3.35
2022-08-25T09:31:45.087Z,6.35
2022-08-25T09:34:25.051Z,4.07
2022-08-25T09:36:53.603Z,3.85
2022-08-25T09:39:21.611Z,4.05
2022-08-25T09:41:57.206Z,4.05
2022-08-25T09:44:39.004Z,5.68
2022-08-25T09:47:15.603Z,3.72
2022-08-25T09:50:05.706Z,4.80
2022-08-25T09:52:41.288Z,3.63
2022-08-25T09:55:08.878Z,3.58
2022-08-25T09:57:43.502Z,3.20
2022-08-25T10:00:23.229Z,3.60
2022-08-25T10:03:11.556Z,3.50
2022-08-25T10:06:04.879Z,3.72
2022-08-25T10:09:01.155Z,3.00
2022-08-25T10:11:42.649Z,3.20
2022-08-25T10:14:23.057Z,3.22
2022-08-25T10:16:54.803Z,2.70
2022-08-25T10:19:30.344Z,3.88
2022-08-25T10:22:22.154Z,3.53
2022-08-25T10:24:49.642Z,3.78
2022-08-25T10:28:01.794Z,2.70
2022-08-25T10:30:37.928Z,2.95
2022-08-25T10:33:17.602Z,3.53
2022-08-25T10:35:58.631Z,3.45
2022-08-25T10:39:33.822Z,3.00
2022-08-25T10:42:04.213Z,3.13
2022-08-25T10:45:12.370Z,4.22
2022-08-25T10:47:55.387Z,4.18
2022-08-25T10:50:38.172Z,3.35
2022-08-25T10:53:27.187Z,3.70
2022-08-25T10:56:19.213Z,4.43
2022-08-25T10:59:11.495Z,3.33
2022-08-25T11:01:53.690Z,3.63
2022-08-25T11:04:26.415Z,3.88
2022-08-25T11:07:21.618Z,4.10
2022-08-25T11:09:52.562Z,3.38
2022-08-25T11:12:55.594Z,3.40
2022-08-25T11:16:20.330Z,2.83
2022-08-25T11:19:05.599Z,4.40
2022-08-25T11:22:03.605Z,3.00
2022-08-25T11:24:56.058Z,2.85
2022-08-25T11:27:44.719Z,2.92
2022-08-25T11:30:16.126Z,3.58
2022-08-25T11:32:51.278Z,3.42
2022-08-25T11:35:28.779Z,3.20
2022-08-25T11:38:21.181Z,2.90
2022-08-25T11:40:59.744Z,2.95
2022-08-25T11:43:45.720Z,3.83
2022-08-25T11:46:47.178Z,3.72
2022-08-25T11:49:37.871Z,2.78
2022-08-25T11:52:30.847Z,3.22
2022-08-25T11:55:23.029Z,2.97
2022-08-25T11:57:53.803Z,3.15
2022-08-25T12:00:39.408Z,3.33
2022-08-25T12:03:33.163Z,3.33
2022-08-25T12:06:19.285Z,2.78
2022-08-25T12:09:16.761Z,2.97
2022-08-25T12:11:50.060Z,2.50
2022-08-25T12:14:36.672Z,3.08
2022-08-25T12:17:22.182Z,2.78
2022-08-25T12:19:53.457Z,2.42
2022-08-25T12:22:22.302Z,2.60
2022-08-25T12:25:11.881Z,3.25
2022-08-25T12:28:09.359Z,2.78
2022-08-25T12:30:53.076Z,2.92
2022-08-25T12:33:54.020Z,2.13
2022-08-25T12:36:31.793Z,2.42
2022-08-25T12:39:24.286Z,2.95
2022-08-25T12:44:39.824Z,2.95
2022-08-25T12:47:28.695Z,2.60
2022-08-25T12:50:24.763Z,2.78
2022-08-25T12:52:54.142Z,3.22
2022-08-25T12:55:26.508Z,3.45
2022-08-25T12:57:59.017Z,3.17
2022-08-25T13:00:36.974Z,3.03
2022-08-25T13:03:24.999Z,2.60
2022-08-25T13:06:13.881Z,2.70
2022-08-25T13:09:30.133Z,2.28
2022-08-25T13:12:18.867Z,3.28
2022-08-25T13:14:54.080Z,3.40
2022-08-25T13:17:35.294Z,3.83
2022-08-25T13:20:16.152Z,2.70
2022-08-25T13:22:57.219Z,4.03
2022-08-25T13:25:32.653Z,2.60
2022-08-25T13:28:03.556Z,3.88
2022-08-25T13:30:37.488Z,3.42
2022-08-25T13:33:20.240Z,3.10
2022-08-25T13:36:15.572Z,2.88
2022-08-25T13:38:45.707Z,2.60
2022-08-25T13:41:20.659Z,3.85
2022-08-25T13:43:48.151Z,3.05
2022-08-25T13:46:21.019Z,2.92
2022-08-25T13:48:49.539Z,3.38
2022-08-25T13:51:31.220Z,2.95
2022-08-25T13:54:09.238Z,2.92
2022-08-25T13:56:41.395Z,3.35
2022-08-25T13:59:26.702Z,3.42
2022-08-25T14:01:56.021Z,3.25
2022-08-25T14:04:50.585Z,4.07
2022-08-25T14:07:22.728Z,3.50
2022-08-25T14:10:00.828Z,2.85
2022-08-25T14:12:44.686Z,3.15
2022-08-25T14:15:18.202Z,2.97
2022-08-25T14:18:01.064Z,3.22
2022-08-25T14:20:34.572Z,3.20
2022-08-25T14:23:09.893Z,3.60
2022-08-25T14:25:46.434Z,3.65
2022-08-25T14:28:20.058Z,3.63
2022-08-25T14:31:02.829Z,3.17
2022-08-25T14:33:40.480Z,3.47
2022-08-25T14:36:08.232Z,3.33
2022-08-25T14:38:38.852Z,4.10
2022-08-25T14:43:34.461Z,3.20
2022-08-25T14:46:10.197Z,2.90
2022-08-25T14:48:45.920Z,2.88
2022-08-25T14:51:15.356Z,3.15
2022-08-25T14:53:43.826Z,2.95
2022-08-25T14:56:11.821Z,3.13
2022-08-25T14:58:51.083Z,4.20
2022-08-25T15:01:29.004Z,3.28
2022-08-25T15:04:17.564Z,3.35
2022-08-25T15:06:45.570Z,3.38
2022-08-25T15:09:16.683Z,3.63
2022-08-25T15:11:47.387Z,3.22
2022-08-25T15:14:28.575Z,3.17
2022-08-25T15:17:02.054Z,3.83
2022-08-25T15:19:29.952Z,3.20
2022-08-25T15:21:58.177Z,3.50
2022-08-25T15:24:28.109Z,3.92
2022-08-25T15:26:59.263Z,2.75
2022-08-25T15:29:30.164Z,3.03
2022-08-25T15:32:00.386Z,4.00
2022-08-25T15:34:28.678Z,4.57
2022-08-25T15:37:00.651Z,3.58
2022-08-25T15:39:30.347Z,3.03
2022-08-25T15:42:06.290Z,3.15
2022-08-25T15:44:33.890Z,3.95
2022-08-25T15:47:03.403Z,3.47
2022-08-25T15:49:31.323Z,2.97
2022-08-25T15:51:59.295Z,3.60
2022-08-25T15:54:27.461Z,4.25
2022-08-25T15:56:58.126Z,3.40
2022-08-25T15:59:28.079Z,4.05
2022-08-25T16:01:55.542Z,3.72
2022-08-25T16:04:28.476Z,3.67
2022-08-25T16:06:56.399Z,3.75
2022-08-25T16:09:26.179Z,3.78
2022-08-25T16:11:56.853Z,3.90
2022-08-25T16:14:25.960Z,4.45
2022-08-25T16:16:53.311Z,4.50
2022-08-25T16:19:26.475Z,4.18
2022-08-25T16:21:53.711Z,4.93
2022-08-25T16:24:20.850Z,3.65
2022-08-25T16:26:48.814Z,3.58
2022-08-25T16:29:16.636Z,3.20
2022-08-25T16:31:45.152Z,3.60
2022-08-25T16:34:20.606Z,5.25
2022-08-25T16:36:48.105Z,3.38
2022-08-25T16:39:19.738Z,3.80
2022-08-25T16:41:48.373Z,4.15
2022-08-25T16:44:22.615Z,3.63
2022-08-25T16:46:54.593Z,4.40
2022-08-25T16:49:24.443Z,3.20
2022-08-25T16:51:57.357Z,3.85
2022-08-25T16:54:45.284Z,3.92
2022-08-25T16:57:13.437Z,3.17
2022-08-25T16:59:40.665Z,3.88
2022-08-25T17:02:08.885Z,3.80
2022-08-25T17:04:36.157Z,4.13
2022-08-25T17:07:05.011Z,3.53
2022-08-25T17:09:32.338Z,3.05
2022-08-25T17:11:59.688Z,4.28
2022-08-25T17:14:26.971Z,4.30
2022-08-25T17:16:55.321Z,3.88
2022-08-25T17:19:23.608Z,3.13
2022-08-25T17:21:51.551Z,3.53
2022-08-25T17:24:18.895Z,3.50
2022-08-25T17:26:50.146Z,5.15
2022-08-25T17:29:18.608Z,3.78
2022-08-25T17:31:48.368Z,3.95
2022-08-25T17:34:22.482Z,3.97
2022-08-25T17:36:50.607Z,3.42
2022-08-25T17:39:22.381Z,3.22
2022-08-25T17:41:51.153Z,4.20
2022-08-25T17:44:18.912Z,3.58
2022-08-25T17:46:48.126Z,3.83
2022-08-25T17:49:16.549Z,3.65
2022-08-25T17:51:43.905Z,3.13
2022-08-25T17:54:12.816Z,3.90
2022-08-25T17:56:40.291Z,4.45
2022-08-25T17:59:07.915Z,3.40
2022-08-25T18:01:40.747Z,3.95
2022-08-25T18:04:19.561Z,3.58
2022-08-25T18:06:48.689Z,3.67
2022-08-25T18:09:17.414Z,3.08
2022-08-25T18:11:45.316Z,4.07
2022-08-25T18:14:16.830Z,3.25
2022-08-25T18:16:44.365Z,3.60
2022-08-25T18:19:12.691Z,3.65
2022-08-25T18:21:41.774Z,3.65
2022-08-25T18:24:11.103Z,4.22
2022-08-25T18:26:38.519Z,3.40
2022-08-25T18:29:06.168Z,4.40
2022-08-25T18:31:33.359Z,4.60
2022-08-25T18:34:00.624Z,4.70
2022-08-25T18:36:27.848Z,3.92
2022-08-25T18:39:13.898Z,3.90
2022-08-25T18:41:42.825Z,4.68
2022-08-25T18:44:12.544Z,5.38
2022-08-25T18:46:43.260Z,3.60
2022-08-25T18:49:15.828Z,3.72
2022-08-25T18:51:45.039Z,4.75
2022-08-25T18:54:23.254Z,3.85
2022-08-25T18:56:54.893Z,3.42
2022-08-25T18:59:23.711Z,4.20
2022-08-25T19:01:52.785Z,4.30
2022-08-25T19:04:20.329Z,4.20
2022-08-25T19:06:51.864Z,4.55
2022-08-25T19:09:19.160Z,4.10
2022-08-25T19:11:47.687Z,4.75
2022-08-25T19:14:15.039Z,4.20
2022-08-25T19:16:45.563Z,5.50
2022-08-25T19:19:14.088Z,3.55
2022-08-25T19:21:42.202Z,3.78
2022-08-25T19:24:11.969Z,3.88
2022-08-25T19:26:39.776Z,4.47
2022-08-25T19:29:15.181Z,4.38
2022-08-25T19:31:44.912Z,4.32
2022-08-25T19:34:23.718Z,4.68
2022-08-25T19:36:58.881Z,4.88
2022-08-25T19:39:26.501Z,5.28
2022-08-25T19:41:53.979Z,4.25
2022-08-25T19:44:21.273Z,4.53
2022-08-25T19:46:48.914Z,5.03
2022-08-25T19:49:27.240Z,5.07
2022-08-25T19:52:02.279Z,5.28
2022-08-25T19:54:39.719Z,3.58
2022-08-25T19:57:13.669Z,4.72
2022-08-25T19:59:55.685Z,5.70
2022-08-25T20:02:25.959Z,5.63
2022-08-25T20:05:00.108Z,5.43
2022-08-25T20:07:30.335Z,3.58
2022-08-25T20:09:58.899Z,5.10
2022-08-25T20:12:27.357Z,4.53
2022-08-25T20:14:55.914Z,5.28
2022-08-25T20:17:26.190Z,5.00
2022-08-25T20:19:58.417Z,4.18
2022-08-25T20:22:28.019Z,5.32
2022-08-25T20:25:01.538Z,5.13
2022-08-25T20:27:34.722Z,5.43
2022-08-25T20:30:03.209Z,4.28
2022-08-25T20:32:32.864Z,5.00
2022-08-25T20:35:01.816Z,5.20
2022-08-25T20:37:29.295Z,5.68
2022-08-25T20:39:56.625Z,5.53
2022-08-25T20:42:24.405Z,5.55
2022-08-25T20:44:54.490Z,5.32
2022-08-25T20:47:22.912Z,5.43
2022-08-25T20:50:04.556Z,5.20
2022-08-25T20:52:34.953Z,5.18
2022-08-25T20:55:02.320Z,5.03
2022-08-25T20:57:30.221Z,5.03
2022-08-25T20:59:58.295Z,5.35
2022-08-25T21:02:27.374Z,5.10
2022-08-25T21:04:57.002Z,5.18
2022-08-25T21:07:25.808Z,5.25
2022-08-25T21:09:53.463Z,5.05
2022-08-25T21:12:20.651Z,4.97
2022-08-25T21:14:48.490Z,6.38
2022-08-25T21:17:19.118Z,6.72
2022-08-25T21:22:19.631Z,5.55
2022-08-25T21:24:47.781Z,6.03
2022-08-25T21:27:18.274Z,4.75
2022-08-25T21:29:54.964Z,5.70
2022-08-25T21:32:23.725Z,5.30
2022-08-25T21:34:56.289Z,6.10
2022-08-25T21:37:24.849Z,5.80
2022-08-25T21:39:53.044Z,5.65
2022-08-25T21:42:22.588Z,5.28
2022-08-25T21:44:50.554Z,5.57
2022-08-25T21:47:21.065Z,5.45
2022-08-25T21:49:49.424Z,5.75
2022-08-25T21:52:16.845Z,5.72
2022-08-25T21:54:45.346Z,5.72
2022-08-25T21:57:13.048Z,5.30
2022-08-25T21:59:41.317Z,7.25
2022-08-25T22:02:13.271Z,6.47
2022-08-25T22:04:42.891Z,5.82
2022-08-25T22:07:11.125Z,5.65
2022-08-25T22:09:40.220Z,5.93
2022-08-25T22:12:08.646Z,5.43
2022-08-25T22:14:37.876Z,6.55
2022-08-25T22:17:07.479Z,4.78
2022-08-25T22:19:36.371Z,5.32
2022-08-25T22:22:04.376Z,5.53
2022-08-25T22:24:31.567Z,5.70
2022-08-25T22:26:58.778Z,6.25
2022-08-25T22:29:28.107Z,4.55
2022-08-25T22:32:02.413Z,6.13
2022-08-25T22:34:33.573Z,5.47
2022-08-25T22:37:03.448Z,5.55
2022-08-25T22:39:31.659Z,6.05
2022-08-25T22:41:59.406Z,6.47
2022-08-25T22:44:26.966Z,6.53
2022-08-25T22:46:54.096Z,6.40
2022-08-25T22:49:22.149Z,5.68
2022-08-25T22:51:50.200Z,6.13
2022-08-25T22:54:18.415Z,6.65
2022-08-25T22:56:46.051Z,6.03
2022-08-25T22:59:14.295Z,6.65
2022-08-25T23:01:44.471Z,5.20
2022-08-25T23:04:12.731Z,7.50
2022-08-25T23:06:40.813Z,5.95
2022-08-25T23:09:11.033Z,6.55
2022-08-25T23:11:39.577Z,6.50
2022-08-25T23:14:10.434Z,6.80
2022-08-25T23:16:43.133Z,7.07
2022-08-25T23:19:13.940Z,6.45
2022-08-25T23:22:00.719Z,6.47
2022-08-25T23:24:30.519Z,6.03
2022-08-25T23:27:03.731Z,7.13
2022-08-25T23:29:32.290Z,6.05
2022-08-25T23:31:59.742Z,6.60
2022-08-25T23:34:28.423Z,6.88
2022-08-25T23:36:56.778Z,6.68
2022-08-25T23:39:24.592Z,5.95
2022-08-25T23:41:52.742Z,6.18
2022-08-25T23:44:22.226Z,6.60
2022-08-25T23:46:53.524Z,5.78
2022-08-25T23:49:23.575Z,6.80
2022-08-25T23:51:52.780Z,7.10
2022-08-25T23:54:21.377Z,6.00
2022-08-25T23:56:52.327Z,7.22
2022-08-25T23:59:24.510Z,6.45
